createdAt,value
2024-02-29T00:00:55.409Z,7.20
2024-02-29T00:03:43.488Z,6.28
2024-02-29T00:06:12.150Z,7.35
2024-02-29T00:08:40.430Z,6.93
2024-02-29T00:11:09.072Z,7.07
2024-02-29T00:13:37.389Z,6.32
2024-02-29T00:16:06.780Z,6.45
2024-02-29T00:18:35.263Z,6.35
2024-02-29T00:21:05.769Z,5.45
2024-02-29T00:23:34.088Z,5.13
2024-02-29T00:26:02.667Z,5.65
2024-02-29T00:28:30.265Z,5.38
2024-02-29T00:30:59.132Z,6.75
2024-02-29T00:33:27.629Z,5.35
2024-02-29T00:36:08.623Z,5.70
2024-02-29T00:41:11.557Z,4.75
2024-02-29T00:43:40.924Z,5.38
2024-02-29T00:46:09.935Z,5.78
2024-02-29T00:48:38.260Z,5.13
2024-02-29T00:51:07.097Z,5.57
2024-02-29T00:53:35.433Z,5.53
2024-02-29T00:56:05.954Z,4.85
2024-02-29T00:58:34.172Z,5.30
2024-02-29T01:01:02.924Z,5.70
2024-02-29T01:03:34.038Z,5.85
2024-02-29T01:06:05.574Z,5.50
2024-02-29T01:08:33.829Z,10.98
2024-02-29T01:11:04.752Z,8.48
2024-02-29T01:13:34.554Z,6.70
2024-02-29T01:16:03.279Z,5.25
2024-02-29T01:18:31.651Z,5.10
2024-02-29T01:21:00.294Z,6.32
2024-02-29T01:23:28.492Z,7.47
2024-02-29T01:25:57.123Z,6.20
2024-02-29T01:28:25.429Z,6.00
2024-02-29T01:30:55.369Z,5.57
2024-02-29T01:35:52.414Z,6.00
2024-02-29T01:38:20.769Z,6.97
2024-02-29T01:40:49.364Z,7.50
2024-02-29T01:43:18.008Z,7.45
2024-02-29T01:45:47.431Z,7.18
2024-02-29T01:48:17.493Z,6.40
2024-02-29T01:50:46.334Z,5.80
2024-02-29T01:53:14.597Z,7.25
2024-02-29T01:55:43.183Z,7.15
2024-02-29T01:58:13.871Z,7.13
2024-02-29T02:00:42.881Z,7.00
2024-02-29T02:03:11.447Z,7.78
2024-02-29T02:05:41.658Z,6.75
2024-02-29T02:08:10.476Z,6.55
2024-02-29T02:10:39.235Z,6.60
2024-02-29T02:13:08.995Z,7.15
2024-02-29T02:15:37.775Z,6.82
2024-02-29T02:18:06.691Z,5.78
2024-02-29T02:20:37.189Z,6.05
2024-02-29T02:23:05.742Z,6.18
2024-02-29T02:25:34.365Z,6.63
2024-02-29T02:28:03.141Z,5.82
2024-02-29T02:30:31.903Z,5.53
2024-02-29T02:33:01.880Z,6.80
2024-02-29T02:35:30.538Z,7.22
2024-02-29T02:38:00.193Z,5.38
2024-02-29T02:40:30.066Z,4.78
2024-02-29T02:42:59.650Z,5.22
2024-02-29T02:45:28.348Z,5.35
2024-02-29T02:47:56.791Z,5.72
2024-02-29T02:50:26.259Z,5.10
2024-02-29T02:52:54.583Z,4.90
2024-02-29T02:55:24.681Z,5.55
2024-02-29T02:57:53.131Z,5.15
2024-02-29T03:00:22.012Z,5.45
2024-02-29T03:02:50.480Z,5.05
2024-02-29T03:05:19.733Z,4.90
2024-02-29T03:07:48.453Z,4.47
2024-02-29T03:10:17.169Z,5.47
2024-02-29T03:12:48.360Z,5.63
2024-02-29T03:15:17.585Z,5.00
2024-02-29T03:17:45.875Z,4.70
2024-02-29T03:20:14.638Z,4.85
2024-02-29T03:22:43.310Z,4.38
2024-02-29T03:25:12.260Z,4.63
2024-02-29T03:27:40.770Z,4.68
2024-02-29T03:30:11.849Z,4.53
2024-02-29T03:32:39.174Z,5.32
2024-02-29T03:35:08.147Z,6.30
2024-02-29T03:37:38.123Z,8.23
2024-02-29T03:40:08.095Z,7.80
2024-02-29T03:45:05.017Z,8.82
2024-02-29T03:47:34.674Z,9.77
2024-02-29T03:50:03.583Z,10.23
2024-02-29T03:52:31.884Z,10.77
2024-02-29T03:55:00.655Z,10.70
2024-02-29T03:57:28.965Z,11.02
2024-02-29T03:59:57.955Z,10.68
2024-02-29T04:02:26.226Z,10.63
2024-02-29T04:04:56.762Z,10.65
2024-02-29T04:07:25.179Z,10.18
2024-02-29T04:09:56.060Z,11.45
2024-02-29T04:12:24.770Z,14.55
2024-02-29T04:14:53.343Z,13.57
2024-02-29T04:17:21.942Z,12.98
2024-02-29T04:19:50.675Z,11.65
2024-02-29T04:22:20.272Z,11.63
2024-02-29T04:24:48.883Z,11.27
2024-02-29T04:27:17.293Z,11.80
2024-02-29T04:29:46.971Z,10.77
2024-02-29T04:32:15.303Z,11.50
2024-02-29T04:34:44.366Z,12.90
2024-02-29T04:37:12.579Z,11.45
2024-02-29T04:39:42.641Z,12.35
2024-02-29T04:44:39.911Z,10.98
2024-02-29T04:47:08.653Z,11.65
2024-02-29T04:49:37.502Z,12.70
2024-02-29T04:52:06.818Z,12.70
2024-02-29T04:54:35.575Z,11.40
2024-02-29T04:57:05.363Z,12.45
2024-02-29T04:59:33.972Z,12.10
2024-02-29T05:02:02.806Z,12.07
2024-02-29T05:04:31.607Z,13.65
2024-02-29T05:07:00.082Z,12.80
2024-02-29T05:09:28.857Z,11.88
2024-02-29T05:11:57.164Z,11.13
2024-02-29T05:14:28.045Z,11.60
2024-02-29T05:16:56.484Z,10.77
2024-02-29T05:19:25.517Z,10.27
2024-02-29T05:21:53.899Z,10.98
2024-02-29T05:24:22.594Z,11.45
2024-02-29T05:26:51.286Z,10.75
2024-02-29T05:29:19.950Z,11.55
2024-02-29T05:31:54.152Z,13.10
2024-02-29T05:34:25.092Z,12.68
2024-02-29T05:36:54.202Z,12.05
2024-02-29T05:39:22.859Z,10.73
2024-02-29T05:41:51.193Z,11.45
2024-02-29T05:44:20.568Z,10.30
2024-02-29T05:46:48.812Z,10.73
2024-02-29T05:49:19.219Z,10.27
2024-02-29T05:51:47.517Z,10.93
2024-02-29T05:54:16.502Z,10.88
2024-02-29T05:56:45.025Z,10.32
2024-02-29T05:59:13.980Z,11.00
2024-02-29T06:01:42.266Z,10.82
2024-02-29T06:04:10.977Z,11.20
2024-02-29T06:06:40.652Z,12.68
2024-02-29T06:09:13.804Z,11.38
2024-02-29T06:11:41.995Z,10.88
2024-02-29T06:14:11.521Z,10.60
2024-02-29T06:16:39.728Z,10.32
2024-02-29T06:19:08.394Z,9.85
2024-02-29T06:21:36.781Z,10.93
2024-02-29T06:24:07.069Z,10.18
2024-02-29T06:26:36.060Z,9.95
2024-02-29T06:29:04.703Z,9.98
2024-02-29T06:31:32.908Z,10.02
2024-02-29T06:34:01.684Z,10.30
2024-02-29T06:36:30.086Z,9.43
2024-02-29T06:38:58.706Z,10.05
2024-02-29T06:41:28.768Z,9.30
2024-02-29T06:43:57.290Z,8.98
2024-02-29T06:46:25.610Z,10.32
2024-02-29T06:48:54.243Z,10.07
2024-02-29T06:51:22.524Z,11.00
2024-02-29T06:53:51.102Z,9.70
2024-02-29T06:56:19.449Z,9.45
2024-02-29T06:58:49.403Z,10.07
2024-02-29T07:03:50.029Z,10.35
2024-02-29T07:06:18.595Z,9.82
2024-02-29T07:08:48.473Z,11.05
2024-02-29T07:11:16.881Z,10.35
2024-02-29T07:13:47.568Z,9.98
2024-02-29T07:16:20.504Z,10.40
2024-02-29T07:18:49.407Z,10.38
2024-02-29T07:21:17.814Z,10.05
2024-02-29T07:23:46.548Z,9.25
2024-02-29T07:26:14.883Z,9.70
2024-02-29T07:28:43.433Z,10.75
2024-02-29T07:31:13.214Z,10.10
2024-02-29T07:33:43.276Z,10.88
2024-02-29T07:36:11.552Z,8.93
2024-02-29T07:38:40.212Z,11.13
2024-02-29T07:41:08.401Z,9.90
2024-02-29T07:43:37.080Z,9.60
2024-02-29T07:46:05.992Z,10.30
2024-02-29T07:48:34.763Z,10.15
2024-02-29T07:51:04.447Z,9.70
2024-02-29T07:53:33.086Z,10.05
2024-02-29T07:56:01.275Z,9.35
2024-02-29T07:58:30.102Z,12.13
2024-02-29T08:00:58.742Z,9.90
2024-02-29T08:03:27.411Z,9.77
2024-02-29T08:05:56.867Z,8.77
2024-02-29T08:08:26.952Z,9.10
2024-02-29T08:10:55.351Z,8.98
2024-02-29T08:13:24.217Z,8.00
2024-02-29T08:15:52.735Z,7.55
2024-02-29T08:18:21.407Z,8.48
2024-02-29T08:20:49.787Z,8.35
2024-02-29T08:23:18.455Z,7.80
2024-02-29T08:25:48.057Z,9.02
2024-02-29T08:28:16.986Z,7.38
2024-02-29T08:30:45.710Z,7.47
2024-02-29T08:33:14.576Z,7.75
2024-02-29T08:35:42.981Z,11.98
2024-02-29T08:38:11.652Z,9.13
2024-02-29T08:40:39.358Z,7.95
2024-02-29T08:43:09.390Z,8.98
2024-02-29T08:48:06.649Z,7.25
2024-02-29T08:50:34.956Z,8.02
2024-02-29T08:53:03.524Z,7.07
2024-02-29T08:55:32.040Z,7.70
2024-02-29T08:58:00.782Z,6.78
2024-02-29T09:00:30.549Z,7.60
2024-02-29T09:02:59.144Z,8.98
2024-02-29T09:05:27.398Z,6.82
2024-02-29T09:07:55.980Z,8.65
2024-02-29T09:10:25.869Z,8.60
2024-02-29T09:12:55.901Z,8.00
2024-02-29T09:17:54.078Z,6.57
2024-02-29T09:20:23.250Z,7.47
2024-02-29T09:25:20.485Z,6.60
2024-02-29T09:27:51.129Z,6.53
2024-02-29T09:30:19.630Z,7.55
2024-02-29T09:32:53.401Z,6.18
2024-02-29T09:35:26.497Z,6.07
2024-02-29T09:37:55.174Z,6.68
2024-02-29T09:40:23.614Z,6.10
2024-02-29T09:42:52.414Z,7.57
2024-02-29T09:45:25.350Z,7.25
2024-02-29T09:47:54.592Z,6.97
2024-02-29T09:50:24.298Z,6.95
2024-02-29T09:52:55.891Z,7.28
2024-02-29T09:55:24.381Z,7.68
2024-02-29T09:57:53.517Z,7.40
2024-02-29T10:00:22.683Z,7.40
2024-02-29T10:02:55.755Z,7.70
2024-02-29T10:05:26.315Z,6.28
2024-02-29T10:07:55.139Z,6.82
2024-02-29T10:10:23.733Z,6.07
2024-02-29T10:12:56.905Z,6.15
2024-02-29T10:15:29.525Z,6.20
2024-02-29T10:17:58.618Z,7.22
2024-02-29T10:20:28.984Z,6.43
2024-02-29T10:22:58.090Z,6.60
2024-02-29T10:25:28.092Z,7.18
2024-02-29T10:28:05.419Z,6.13
2024-02-29T10:30:33.986Z,6.28
2024-02-29T10:33:03.404Z,6.80
2024-02-29T10:35:33.032Z,7.28
2024-02-29T10:38:01.816Z,5.28
2024-02-29T10:40:30.167Z,5.38
2024-02-29T10:43:02.770Z,7.82
2024-02-29T10:45:34.305Z,6.07
2024-02-29T10:48:13.340Z,5.97
2024-02-29T10:50:56.692Z,6.65
2024-02-29T10:53:38.614Z,4.80
2024-02-29T10:56:13.566Z,5.68
2024-02-29T10:58:43.637Z,7.53
2024-02-29T11:01:13.810Z,5.93
2024-02-29T11:03:43.440Z,6.55
2024-02-29T11:06:14.058Z,7.60
2024-02-29T11:08:43.226Z,8.50
2024-02-29T11:11:13.255Z,6.35
2024-02-29T11:13:41.957Z,5.90
2024-02-29T11:16:12.372Z,6.15
2024-02-29T11:18:42.392Z,5.93
2024-02-29T11:21:10.993Z,6.72
2024-02-29T11:23:42.294Z,7.18
2024-02-29T11:26:12.021Z,5.93
2024-02-29T11:28:43.355Z,7.13
2024-02-29T11:31:19.196Z,6.60
2024-02-29T11:33:48.618Z,5.78
2024-02-29T11:36:16.995Z,5.93
2024-02-29T11:38:47.307Z,7.43
2024-02-29T11:41:16.881Z,6.63
2024-02-29T11:43:46.970Z,6.07
2024-02-29T11:46:16.943Z,7.35
2024-02-29T11:48:45.887Z,6.40
2024-02-29T11:51:14.120Z,5.80
2024-02-29T11:53:42.988Z,6.50
2024-02-29T11:56:15.928Z,5.90
2024-02-29T11:58:46.881Z,6.75
2024-02-29T12:01:15.680Z,6.43
2024-02-29T12:03:46.390Z,5.78
2024-02-29T12:06:15.079Z,6.20
2024-02-29T12:08:46.032Z,6.65
2024-02-29T12:11:16.513Z,6.38
2024-02-29T12:13:45.323Z,7.28
2024-02-29T12:16:14.105Z,6.47
2024-02-29T12:18:43.235Z,5.78
2024-02-29T12:21:11.920Z,6.47
2024-02-29T12:23:41.402Z,6.80
2024-02-29T12:26:11.260Z,6.50
2024-02-29T12:28:42.020Z,6.07
2024-02-29T12:31:11.220Z,5.60
2024-02-29T12:33:40.915Z,6.97
2024-02-29T12:36:10.130Z,6.45
2024-02-29T12:38:38.866Z,6.00
2024-02-29T12:41:08.049Z,6.00
2024-02-29T12:43:38.033Z,7.30
2024-02-29T12:46:09.220Z,6.00
2024-02-29T12:48:38.134Z,6.22
2024-02-29T12:51:09.361Z,5.80
2024-02-29T12:53:38.298Z,5.32
2024-02-29T12:56:06.856Z,5.82
2024-02-29T12:58:35.673Z,7.25
2024-02-29T13:01:07.030Z,6.20
2024-02-29T13:03:37.768Z,6.65
2024-02-29T13:06:07.002Z,6.80
2024-02-29T13:11:04.422Z,7.20
2024-02-29T13:13:33.281Z,7.65
2024-02-29T13:16:01.925Z,5.40
2024-02-29T13:18:30.594Z,5.93
2024-02-29T13:21:01.308Z,6.35
2024-02-29T13:23:31.033Z,7.78
2024-02-29T13:26:02.438Z,6.70
2024-02-29T13:28:31.493Z,7.22
2024-02-29T13:30:59.809Z,6.53
2024-02-29T13:33:29.184Z,6.32
2024-02-29T13:35:57.586Z,6.43
2024-02-29T13:38:29.819Z,7.22
2024-02-29T13:40:58.125Z,6.53
2024-02-29T13:43:28.044Z,6.95
2024-02-29T13:45:56.496Z,6.53
2024-02-29T13:48:25.225Z,7.00
2024-02-29T13:50:53.528Z,7.50
2024-02-29T13:53:22.289Z,6.57
2024-02-29T13:55:52.034Z,6.65
2024-02-29T13:58:21.024Z,6.18
2024-02-29T14:00:49.477Z,6.78
2024-02-29T14:03:18.128Z,7.90
2024-02-29T14:05:46.426Z,6.60
2024-02-29T14:08:15.066Z,5.20
2024-02-29T14:10:43.342Z,5.95
2024-02-29T14:13:13.345Z,5.75
2024-02-29T14:15:41.724Z,4.80
2024-02-29T14:18:11.678Z,5.15
2024-02-29T14:20:40.031Z,6.00
2024-02-29T14:23:08.662Z,4.95
2024-02-29T14:25:37.016Z,5.85
2024-02-29T14:28:06.233Z,5.97
2024-02-29T14:30:37.955Z,5.70
2024-02-29T14:33:07.111Z,5.72
2024-02-29T14:35:36.369Z,4.93
2024-02-29T14:38:06.514Z,5.80
2024-02-29T14:40:35.615Z,4.75
2024-02-29T14:43:05.846Z,5.07
2024-02-29T14:45:36.817Z,5.78
2024-02-29T14:48:08.279Z,4.68
2024-02-29T14:50:36.957Z,5.03
2024-02-29T14:53:06.042Z,4.43
2024-02-29T14:55:34.373Z,5.57
2024-02-29T14:58:03.576Z,4.78
2024-02-29T15:00:32.277Z,5.55
2024-02-29T15:03:00.966Z,6.30
2024-02-29T15:05:30.648Z,5.18
2024-02-29T15:08:02.236Z,5.97
2024-02-29T15:10:30.555Z,6.03
2024-02-29T15:12:59.346Z,6.05
2024-02-29T15:15:29.510Z,6.82
2024-02-29T15:17:58.590Z,5.82
2024-02-29T15:20:27.083Z,6.22
2024-02-29T15:22:57.222Z,6.07
2024-02-29T15:25:29.094Z,6.13
2024-02-29T15:28:00.120Z,6.43
2024-02-29T15:30:28.656Z,6.47
2024-02-29T15:32:57.398Z,7.28
2024-02-29T15:35:25.721Z,5.75
2024-02-29T15:37:55.501Z,6.32
2024-02-29T15:40:25.335Z,5.82
2024-02-29T15:42:54.136Z,6.13
2024-02-29T15:45:22.447Z,6.05
2024-02-29T15:47:51.364Z,6.47
2024-02-29T15:50:19.805Z,5.60
2024-02-29T15:52:48.626Z,6.93
2024-02-29T15:55:17.146Z,6.72
2024-02-29T15:57:47.211Z,7.07
2024-02-29T16:00:16.606Z,8.05
2024-02-29T16:02:45.544Z,8.90
2024-02-29T16:05:14.028Z,8.27
2024-02-29T16:07:42.614Z,6.93
2024-02-29T16:10:11.490Z,7.53
2024-02-29T16:12:40.999Z,7.47
2024-02-29T16:15:13.481Z,7.47
2024-02-29T16:17:43.092Z,7.35
2024-02-29T16:20:12.592Z,8.05
2024-02-29T16:22:41.970Z,7.13
2024-02-29T16:25:10.660Z,7.28
2024-02-29T16:27:39.741Z,7.57
2024-02-29T16:30:10.674Z,8.13
2024-02-29T16:32:40.878Z,7.85
2024-02-29T16:35:11.312Z,10.60
2024-02-29T16:37:40.320Z,8.43
2024-02-29T16:40:10.912Z,8.52
2024-02-29T16:42:39.867Z,10.05
2024-02-29T16:45:10.715Z,9.88
2024-02-29T16:47:40.214Z,10.93
2024-02-29T16:50:09.162Z,11.15
2024-02-29T16:57:37.293Z,8.65
2024-02-29T17:00:06.427Z,9.05
2024-02-29T17:05:05.253Z,22.48
2024-02-29T17:07:33.942Z,11.32
2024-02-29T17:10:02.440Z,9.55
2024-02-29T17:12:32.034Z,8.45
2024-02-29T17:15:00.380Z,10.88
2024-02-29T17:17:30.226Z,8.65
2024-02-29T17:22:29.263Z,6.78
2024-02-29T17:24:57.630Z,6.13
2024-02-29T17:27:26.916Z,7.25
2024-02-29T17:29:55.920Z,7.18
2024-02-29T17:32:26.382Z,7.80
2024-02-29T17:34:54.929Z,9.60
2024-02-29T17:37:27.125Z,8.10
2024-02-29T17:39:57.359Z,9.98
2024-02-29T17:42:26.559Z,10.20
2024-02-29T17:44:54.924Z,9.77
2024-02-29T17:47:23.732Z,11.10
2024-02-29T17:49:52.683Z,11.18
2024-02-29T17:52:21.476Z,11.73
2024-02-29T17:54:51.204Z,12.20
2024-02-29T17:57:20.009Z,9.73
2024-02-29T17:59:48.244Z,11.05
2024-02-29T18:02:19.851Z,16.88
2024-02-29T18:04:50.428Z,12.48
2024-02-29T18:07:19.380Z,14.23
2024-02-29T18:09:47.692Z,12.07
2024-02-29T18:12:17.866Z,12.10
2024-02-29T18:14:46.294Z,12.57
2024-02-29T18:17:15.078Z,12.15
2024-02-29T18:19:44.580Z,12.07
2024-02-29T18:22:13.645Z,13.95
2024-02-29T18:24:42.399Z,15.95
2024-02-29T18:27:12.241Z,16.30
2024-02-29T18:29:41.971Z,13.15
2024-02-29T18:32:10.890Z,13.68
2024-02-29T18:34:39.306Z,14.07
2024-02-29T18:37:08.276Z,15.65
2024-02-29T18:39:36.874Z,20.60
2024-02-29T18:42:05.710Z,21.42
2024-02-29T18:44:34.408Z,20.08
2024-02-29T18:47:05.758Z,19.92
2024-02-29T18:49:34.222Z,16.83
2024-02-29T18:52:03.763Z,17.45
2024-02-29T18:54:32.243Z,18.95
2024-02-29T18:57:01.106Z,18.48
2024-02-29T18:59:30.897Z,21.30
2024-02-29T19:02:00.515Z,21.50
2024-02-29T19:04:31.532Z,20.63
2024-02-29T19:07:00.218Z,18.98
2024-02-29T19:09:28.490Z,18.33
2024-02-29T19:11:57.221Z,16.77
2024-02-29T19:14:25.737Z,18.05
2024-02-29T19:16:54.999Z,17.17
2024-02-29T19:19:23.449Z,16.83
2024-02-29T19:21:53.571Z,17.25
2024-02-29T19:24:21.919Z,18.48
2024-02-29T19:26:50.549Z,17.20
2024-02-29T19:29:18.847Z,16.30
2024-02-29T19:31:47.881Z,17.60
2024-02-29T19:34:16.302Z,17.85
2024-02-29T19:36:45.399Z,18.83
2024-02-29T19:39:15.411Z,17.17
2024-02-29T19:41:44.546Z,15.88
2024-02-29T19:44:13.551Z,19.52
2024-02-29T19:46:45.840Z,18.05
2024-02-29T19:49:14.509Z,17.13
2024-02-29T19:51:44.266Z,17.17
2024-02-29T19:56:43.208Z,17.75
2024-02-29T19:59:12.756Z,20.27
2024-02-29T20:01:42.795Z,21.17
2024-02-29T20:06:43.384Z,18.77
2024-02-29T20:09:11.879Z,15.57
2024-02-29T20:11:42.378Z,15.82
2024-02-29T20:14:11.024Z,17.75
2024-02-29T20:16:39.929Z,15.80
2024-02-29T20:19:08.886Z,17.80
2024-02-29T20:21:37.602Z,18.63
2024-02-29T20:24:06.795Z,16.65
2024-02-29T20:26:35.566Z,16.17
2024-02-29T20:29:05.178Z,16.52
2024-02-29T20:31:35.025Z,16.98
2024-02-29T20:34:03.546Z,16.30
2024-02-29T20:36:32.226Z,16.85
2024-02-29T20:39:00.617Z,14.77
2024-02-29T20:41:29.298Z,14.77
2024-02-29T20:43:57.646Z,16.65
2024-02-29T20:46:27.752Z,14.30
2024-02-29T20:48:56.137Z,16.90
2024-02-29T20:51:24.887Z,18.55
2024-02-29T20:53:53.194Z,17.10
2024-02-29T20:56:22.019Z,17.35
2024-02-29T20:58:50.494Z,16.45
2024-02-29T21:01:19.291Z,14.77
2024-02-29T21:03:50.731Z,14.98
2024-02-29T21:06:23.808Z,15.02
2024-02-29T21:08:52.117Z,15.90
2024-02-29T21:11:21.412Z,14.77
2024-02-29T21:13:50.467Z,13.40
2024-02-29T21:16:19.192Z,14.13
2024-02-29T21:18:48.906Z,14.77
2024-02-29T21:21:19.726Z,14.90
2024-02-29T21:23:48.977Z,14.70
2024-02-29T21:26:19.224Z,15.32
2024-02-29T21:28:49.536Z,14.70
2024-02-29T21:31:18.739Z,14.63
2024-02-29T21:33:48.695Z,14.73
2024-02-29T21:36:17.554Z,14.18
2024-02-29T21:38:48.118Z,15.13
2024-02-29T21:41:16.869Z,17.02
2024-02-29T21:43:45.811Z,16.15
2024-02-29T21:46:14.861Z,15.00
2024-02-29T21:48:43.105Z,16.45
2024-02-29T21:51:18.534Z,16.27
2024-02-29T21:53:47.023Z,16.48
2024-02-29T21:56:16.235Z,17.67
2024-02-29T21:58:44.699Z,19.02
2024-02-29T22:01:13.565Z,17.65
2024-02-29T22:03:41.982Z,15.80
2024-02-29T22:06:11.987Z,19.10
2024-02-29T22:08:40.290Z,19.73
2024-02-29T22:11:10.649Z,19.95
2024-02-29T22:13:39.079Z,19.05
2024-02-29T22:16:09.345Z,19.63
2024-02-29T22:18:37.746Z,19.30
2024-02-29T22:21:08.074Z,21.05
2024-02-29T22:23:38.127Z,20.42
2024-02-29T22:26:06.764Z,19.10
2024-02-29T22:28:35.155Z,20.50
2024-02-29T22:31:04.067Z,19.17
2024-02-29T22:33:32.468Z,22.63
2024-02-29T22:36:01.330Z,24.65
2024-02-29T22:38:29.640Z,21.67
2024-02-29T22:40:59.689Z,25.23
2024-02-29T22:43:28.252Z,23.45
2024-02-29T22:45:56.907Z,25.35
2024-02-29T22:48:25.563Z,26.10
2024-02-29T22:50:57.157Z,26.05
2024-02-29T22:53:25.472Z,25.02
2024-02-29T22:55:54.343Z,25.38
2024-02-29T22:58:24.259Z,26.90
2024-02-29T23:00:54.270Z,24.15
2024-02-29T23:03:23.291Z,28.65
2024-02-29T23:05:52.103Z,25.83
2024-02-29T23:08:20.929Z,27.02
2024-02-29T23:10:49.628Z,26.20
2024-02-29T23:13:18.087Z,25.88
2024-02-29T23:15:50.159Z,26.05
2024-02-29T23:18:18.547Z,25.02
2024-02-29T23:20:47.825Z,26.08
2024-02-29T23:23:16.235Z,27.20
2024-02-29T23:25:45.221Z,27.17
2024-02-29T23:28:13.553Z,25.95
2024-02-29T23:33:12.028Z,25.25
2024-02-29T23:35:40.525Z,24.77
2024-02-29T23:38:08.876Z,25.75
2024-02-29T23:40:37.573Z,25.92
2024-02-29T23:43:06.012Z,25.83
2024-02-29T23:45:34.630Z,25.42
2024-02-29T23:48:03.136Z,24.50
2024-02-29T23:50:33.224Z,25.08
2024-02-29T23:53:01.481Z,24.38
2024-02-29T23:55:30.254Z,25.42
2024-02-29T23:57:58.627Z,28.55
